Time;durP1;ratioP1;P1;durP2;ratioP2;P2;SDS_P1;SDS_P2;PMS_P1;PMS_P2;Temp;Humidity;BMP_temperature;BMP_pressure;BME280_temperature;BME280_humidity;BME280_pressure;Samples;Min_cycle;Max_cycle;Signal;HPM_P1;HPM_P2
2021/03/31 00:01:55;;;;;;;16.83;7.15;;;10.40;99.90;;;;;;5045732;28;20040;-74
2021/03/31 00:04:21;;;;;;;18.55;7.25;;;10.30;99.90;;;;;;5046866;28;20030;-76
2021/03/31 00:06:47;;;;;;;14.98;7.63;;;10.30;99.90;;;;;;5045768;28;20025;-75
2021/03/31 00:09:12;;;;;;;16.85;7.65;;;10.20;99.90;;;;;;5046952;28;20044;-76
2021/03/31 00:11:38;;;;;;;17.63;7.03;;;10.10;99.90;;;;;;5047051;28;20029;-74
2021/03/31 00:14:04;;;;;;;25.17;6.63;;;10.00;99.90;;;;;;5045604;28;20052;-74
2021/03/31 00:16:29;;;;;;;15.43;7.25;;;9.80;99.90;;;;;;5046558;28;20032;-73
2021/03/31 00:18:55;;;;;;;12.82;5.65;;;9.80;99.90;;;;;;5046474;28;20049;-74
2021/03/31 00:21:21;;;;;;;17.77;6.97;;;9.70;99.90;;;;;;5046725;28;20029;-74
2021/03/31 00:23:47;;;;;;;15.30;6.45;;;9.60;99.90;;;;;;5046656;28;20089;-75
2021/03/31 00:26:12;;;;;;;13.80;6.38;;;9.60;99.90;;;;;;5046547;28;20029;-74
2021/03/31 00:28:38;;;;;;;16.83;6.78;;;9.50;99.90;;;;;;5046708;28;20033;-73
2021/03/31 00:31:04;;;;;;;16.17;6.28;;;9.60;99.90;;;;;;5046583;28;20468;-74
2021/03/31 00:33:29;;;;;;;15.95;6.75;;;9.60;99.90;;;;;;5046515;28;20037;-73
2021/03/31 00:35:55;;;;;;;14.20;6.63;;;9.60;99.90;;;;;;5046371;28;20025;-74
2021/03/31 00:38:21;;;;;;;15.48;6.68;;;9.70;99.90;;;;;;5045450;28;20118;-74
2021/03/31 00:40:53;;;;;;;18.90;7.72;;;9.60;99.90;;;;;;5046789;28;20382;-75
2021/03/31 00:43:18;;;;;;;19.80;8.40;;;9.60;99.90;;;;;;5046207;28;20071;-74
2021/03/31 00:45:45;;;;;;;20.92;7.38;;;9.60;99.90;;;;;;5045030;28;20060;-72
2021/03/31 00:48:15;;;;;;;13.27;6.38;;;9.50;99.90;;;;;;5046437;28;20025;-73
2021/03/31 00:50:51;;;;;;;22.67;7.63;;;9.50;99.90;;;;;;5046622;28;20055;-73
2021/03/31 00:53:24;;;;;;;12.65;6.60;;;9.50;99.90;;;;;;5046202;28;20032;-76
2021/03/31 00:55:51;;;;;;;18.25;7.53;;;9.50;99.90;;;;;;5044735;28;20025;-76
2021/03/31 00:58:16;;;;;;;15.10;7.47;;;9.50;99.90;;;;;;5044684;28;20384;-74
2021/03/31 01:00:42;;;;;;;15.80;7.53;;;9.50;99.90;;;;;;5046162;28;20029;-76
2021/03/31 01:03:08;;;;;;;17.52;6.80;;;9.50;99.90;;;;;;5045943;28;20042;-72
2021/03/31 01:05:34;;;;;;;16.52;7.22;;;9.50;99.90;;;;;;5026695;28;20033;-73
2021/03/31 01:08:00;;;;;;;18.52;7.63;;;9.50;99.90;;;;;;5041173;28;20034;-73
2021/03/31 01:10:30;;;;;;;15.48;7.10;;;9.40;99.90;;;;;;5024852;28;20032;-72
2021/03/31 01:13:19;;;;;;;15.35;6.30;;;9.40;99.90;;;;;;5024798;28;20061;-72
2021/03/31 01:15:52;;;;;;;12.38;5.93;;;9.30;99.90;;;;;;5040946;28;20390;-73
2021/03/31 01:18:32;;;;;;;13.82;6.05;;;9.20;99.90;;;;;;5025889;28;20046;-72
2021/03/31 01:21:13;;;;;;;20.23;6.80;;;9.10;99.90;;;;;;5025742;28;20022;-72
2021/03/31 01:23:58;;;;;;;12.32;6.57;;;9.00;99.90;;;;;;5025729;28;20243;-73
2021/03/31 01:26:36;;;;;;;11.60;6.30;;;9.00;99.90;;;;;;5025733;28;20038;-74
2021/03/31 01:29:20;;;;;;;14.50;6.03;;;9.00;99.90;;;;;;5025711;28;20036;-74
2021/03/31 01:31:46;;;;;;;15.30;7.35;;;8.90;99.90;;;;;;5025728;28;20029;-73
2021/03/31 01:34:34;;;;;;;23.05;6.85;;;8.90;99.90;;;;;;5024461;28;20062;-72
2021/03/31 01:37:03;;;;;;;14.52;7.07;;;8.80;99.90;;;;;;5025605;28;20034;-72
2021/03/31 01:39:31;;;;;;;13.90;5.78;;;8.80;99.90;;;;;;5025307;28;20527;-72
2021/03/31 01:42:00;;;;;;;15.40;6.53;;;8.70;99.90;;;;;;5024051;28;20046;-73
2021/03/31 01:44:26;;;;;;;12.57;6.63;;;8.70;99.90;;;;;;5025296;28;20037;-72
2021/03/31 01:46:57;;;;;;;16.20;5.88;;;8.70;99.90;;;;;;5023922;28;20022;-73
2021/03/31 01:49:25;;;;;;;15.55;6.88;;;8.60;99.90;;;;;;5025315;28;20033;-73
2021/03/31 01:52:03;;;;;;;24.00;7.05;;;8.60;99.90;;;;;;5025099;28;20044;-71
2021/03/31 01:54:30;;;;;;;16.25;7.25;;;8.60;99.90;;;;;;5023730;28;20061;-72
2021/03/31 01:56:58;;;;;;;13.82;6.55;;;8.50;99.90;;;;;;5024071;28;20026;-72
2021/03/31 01:59:25;;;;;;;15.55;6.35;;;8.50;99.90;;;;;;5024973;28;20041;-73
2021/03/31 02:01:53;;;;;;;13.32;7.22;;;8.40;99.90;;;;;;5023601;28;20030;-73
2021/03/31 02:04:20;;;;;;;15.40;7.22;;;8.40;99.90;;;;;;5025176;28;20078;-74
2021/03/31 02:06:47;;;;;;;16.48;7.53;;;8.30;99.90;;;;;;5025185;28;20037;-74
2021/03/31 02:09:14;;;;;;;16.77;7.22;;;8.30;99.90;;;;;;5025130;28;20030;-72
2021/03/31 02:11:43;;;;;;;13.68;5.63;;;8.30;99.90;;;;;;5040471;28;20123;-74
2021/03/31 02:14:12;;;;;;;14.20;6.63;;;8.30;99.90;;;;;;5025059;28;20030;-72
2021/03/31 02:16:39;;;;;;;13.25;7.05;;;8.30;99.90;;;;;;5024913;28;20108;-72
2021/03/31 02:19:05;;;;;;;15.32;6.97;;;8.20;99.90;;;;;;5024802;28;20034;-72
2021/03/31 02:21:32;;;;;;;24.20;7.97;;;8.20;99.90;;;;;;5024544;28;20022;-72
2021/03/31 02:23:58;;;;;;;20.83;7.68;;;8.20;99.90;;;;;;5023241;28;20053;-74
2021/03/31 02:26:26;;;;;;;17.38;6.95;;;8.10;99.90;;;;;;5024829;28;20026;-71
2021/03/31 02:28:52;;;;;;;15.23;7.70;;;8.20;99.90;;;;;;5023471;28;20462;-74
2021/03/31 02:31:20;;;;;;;19.98;7.47;;;8.10;99.90;;;;;;5023679;28;20049;-76
2021/03/31 02:33:46;;;;;;;17.02;7.00;;;8.00;99.90;;;;;;5024905;28;20030;-73
2021/03/31 02:36:13;;;;;;;17.80;6.85;;;8.00;99.90;;;;;;5025118;28;20049;-72
2021/03/31 02:38:39;;;;;;;13.25;6.47;;;7.90;99.90;;;;;;5040156;28;20041;-73
2021/03/31 02:41:05;;;;;;;14.40;7.10;;;8.00;99.90;;;;;;5023177;28;20036;-74
2021/03/31 02:43:33;;;;;;;15.45;8.13;;;7.90;99.90;;;;;;5024678;28;20054;-73
2021/03/31 02:46:00;;;;;;;18.88;7.47;;;7.90;99.90;;;;;;5024808;28;20022;-72
2021/03/31 02:48:27;;;;;;;17.98;7.38;;;7.90;99.90;;;;;;5023505;28;20032;-73
2021/03/31 02:50:57;;;;;;;20.15;7.78;;;7.90;99.90;;;;;;5025200;28;20486;-73
2021/03/31 02:53:24;;;;;;;22.60;7.10;;;7.90;99.90;;;;;;5039936;28;20094;-73
2021/03/31 02:55:51;;;;;;;17.73;7.80;;;7.90;99.90;;;;;;5024558;28;20022;-71
2021/03/31 02:58:17;;;;;;;27.27;8.75;;;7.90;99.90;;;;;;5024892;28;20026;-73
2021/03/31 03:00:43;;;;;;;20.10;8.43;;;7.90;99.90;;;;;;5023401;28;20030;-73
2021/03/31 03:03:10;;;;;;;22.73;7.60;;;8.00;99.90;;;;;;5024479;28;20092;-71
2021/03/31 03:05:36;;;;;;;18.58;7.97;;;7.80;99.90;;;;;;5024486;28;20022;-72
2021/03/31 03:08:03;;;;;;;17.92;7.20;;;7.80;99.90;;;;;;5024280;28;20113;-72
2021/03/31 03:10:29;;;;;;;14.63;7.13;;;7.70;99.90;;;;;;5024215;28;20038;-73
2021/03/31 03:12:57;;;;;;;17.35;7.13;;;7.60;99.90;;;;;;5024460;28;20033;-72
2021/03/31 03:15:26;;;;;;;17.13;9.48;;;7.60;99.90;;;;;;5039209;28;20030;-74
2021/03/31 03:17:52;;;;;;;23.05;9.02;;;7.60;99.90;;;;;;5024107;28;20077;-74
2021/03/31 03:20:19;;;;;;;12.48;6.68;;;7.70;99.90;;;;;;5023089;28;20030;-73
2021/03/31 03:22:47;;;;;;;17.92;7.78;;;7.60;99.90;;;;;;5024197;28;20114;-73
2021/03/31 03:25:14;;;;;;;22.10;7.97;;;7.60;99.90;;;;;;5024385;28;20026;-73
2021/03/31 03:27:45;;;;;;;22.55;9.73;;;7.60;99.90;;;;;;5023019;28;20372;-74
2021/03/31 03:30:14;;;;;;;27.25;8.27;;;7.50;99.90;;;;;;5024488;28;20030;-72
2021/03/31 03:32:41;;;;;;;20.35;8.60;;;7.50;99.90;;;;;;5040340;28;20097;-73
2021/03/31 03:35:26;;;;;;;23.20;9.45;;;7.50;99.90;;;;;;5027452;28;20033;-73
2021/03/31 03:37:53;;;;;;;23.58;8.50;;;7.50;99.90;;;;;;5027912;28;20506;-73
2021/03/31 03:40:24;;;;;;;20.35;9.73;;;7.40;99.90;;;;;;5027682;28;20056;-75
2021/03/31 03:42:50;;;;;;;25.08;9.45;;;7.40;99.90;;;;;;5027560;28;20041;-72
2021/03/31 03:45:17;;;;;;;21.58;8.43;;;7.40;99.90;;;;;;5027598;28;20026;-74
2021/03/31 03:47:44;;;;;;;23.40;9.63;;;7.30;99.90;;;;;;5027767;28;20053;-75
2021/03/31 03:50:12;;;;;;;22.23;9.00;;;7.30;99.90;;;;;;5027674;28;20057;-74
2021/03/31 03:52:39;;;;;;;24.92;9.15;;;7.30;99.90;;;;;;5027529;28;20026;-71
2021/03/31 03:55:07;;;;;;;20.67;9.15;;;7.20;99.90;;;;;;5027240;28;20034;-73
2021/03/31 03:57:32;;;;;;;19.35;9.10;;;7.20;99.90;;;;;;5026081;28;20113;-73
2021/03/31 03:59:58;;;;;;;24.02;9.52;;;7.20;99.90;;;;;;5027218;28;20131;-73
2021/03/31 04:02:24;;;;;;;27.70;10.18;;;7.30;99.90;;;;;;5025811;28;20064;-73
2021/03/31 04:04:50;;;;;;;19.60;9.32;;;7.20;99.90;;;;;;5027248;28;20076;-74
2021/03/31 04:07:15;;;;;;;20.95;10.23;;;7.20;99.90;;;;;;5027449;28;20052;-74
2021/03/31 04:09:43;;;;;;;21.92;10.30;;;7.20;99.90;;;;;;5027142;28;20032;-73
2021/03/31 04:12:10;;;;;;;23.33;9.80;;;7.20;99.90;;;;;;5025778;28;20030;-74
2021/03/31 04:14:40;;;;;;;22.13;8.38;;;7.20;99.90;;;;;;5026832;28;20064;-72
2021/03/31 04:17:10;;;;;;;24.38;10.07;;;7.20;99.90;;;;;;5026767;28;20514;-73
2021/03/31 04:19:37;;;;;;;26.80;10.45;;;7.20;99.90;;;;;;5025590;28;20057;-73
2021/03/31 04:22:04;;;;;;;24.67;10.75;;;7.20;99.90;;;;;;5025603;28;20034;-72
2021/03/31 04:24:30;;;;;;;27.65;10.18;;;7.20;99.90;;;;;;5026935;28;20026;-72
2021/03/31 04:26:57;;;;;;;25.10;10.35;;;7.10;99.90;;;;;;5026768;28;20033;-73
2021/03/31 04:29:23;;;;;;;29.55;10.10;;;7.20;99.90;;;;;;5026726;28;20022;-73
2021/03/31 04:31:49;;;;;;;20.00;9.68;;;7.20;99.90;;;;;;5026755;28;20048;-74
2021/03/31 04:34:15;;;;;;;19.35;9.65;;;7.10;99.90;;;;;;5026791;28;20051;-73
2021/03/31 04:36:42;;;;;;;26.52;10.40;;;7.20;99.90;;;;;;5026781;28;20080;-73
2021/03/31 04:39:08;;;;;;;16.15;8.18;;;7.20;99.90;;;;;;5025083;28;20033;-73
2021/03/31 04:41:34;;;;;;;30.73;10.13;;;7.20;99.90;;;;;;5026655;28;20041;-70
2021/03/31 04:44:01;;;;;;;21.48;9.15;;;7.20;99.90;;;;;;5026247;28;20037;-72
2021/03/31 04:46:26;;;;;;;19.25;9.07;;;7.20;99.90;;;;;;5026462;28;20022;-72
2021/03/31 04:48:52;;;;;;;28.80;10.48;;;7.20;99.90;;;;;;5041651;28;20030;-74
2021/03/31 04:51:18;;;;;;;32.75;10.40;;;7.10;99.90;;;;;;5026528;28;20034;-72
2021/03/31 04:53:44;;;;;;;25.75;9.75;;;7.20;99.90;;;;;;5025196;28;20126;-74
2021/03/31 04:56:10;;;;;;;21.10;8.88;;;7.10;99.90;;;;;;5026087;28;20022;-72
2021/03/31 04:58:35;;;;;;;25.38;11.13;;;7.20;99.90;;;;;;5041715;28;20422;-72
2021/03/31 05:01:02;;;;;;;19.88;8.57;;;7.10;99.90;;;;;;5026181;28;20029;-73
2021/03/31 05:03:28;;;;;;;18.17;9.15;;;7.10;99.90;;;;;;5041162;28;20041;-74
2021/03/31 05:05:54;;;;;;;23.58;10.02;;;7.10;99.90;;;;;;5025767;28;20045;-73
2021/03/31 05:08:19;;;;;;;25.55;9.02;;;7.10;99.90;;;;;;5025638;28;20026;-71
2021/03/31 05:10:46;;;;;;;25.40;9.75;;;7.10;99.90;;;;;;5025701;28;20058;-74
2021/03/31 05:13:13;;;;;;;23.13;10.85;;;7.10;99.90;;;;;;5025832;28;20026;-73
2021/03/31 05:15:40;;;;;;;22.30;9.88;;;7.10;99.90;;;;;;5025459;28;20026;-76
2021/03/31 05:18:06;;;;;;;26.42;9.68;;;7.10;99.90;;;;;;5026273;28;20123;-73
2021/03/31 05:20:32;;;;;;;21.38;8.50;;;7.10;99.90;;;;;;5041247;28;20041;-74
2021/03/31 05:22:58;;;;;;;28.73;9.70;;;7.20;99.90;;;;;;5045166;28;20124;-73
2021/03/31 05:25:23;;;;;;;18.98;9.77;;;7.20;99.90;;;;;;5040011;28;20038;-73
2021/03/31 05:27:49;;;;;;;19.10;8.00;;;7.20;99.90;;;;;;5025439;28;20028;-74
2021/03/31 05:30:16;;;;;;;22.30;8.05;;;7.20;99.90;;;;;;5040891;28;20386;-74
2021/03/31 05:32:41;;;;;;;17.00;8.40;;;7.30;99.90;;;;;;5025467;28;20101;-73
2021/03/31 05:35:09;;;;;;;20.80;9.63;;;7.30;99.90;;;;;;5025285;28;20045;-75
2021/03/31 05:37:35;;;;;;;22.42;9.80;;;7.30;99.90;;;;;;5024475;28;20026;-74
2021/03/31 05:40:01;;;;;;;18.58;8.48;;;7.30;99.90;;;;;;5024989;28;20029;-73
2021/03/31 05:42:27;;;;;;;22.73;9.15;;;7.30;99.90;;;;;;5025094;28;20037;-74
2021/03/31 05:44:53;;;;;;;23.52;8.85;;;7.20;99.90;;;;;;5025230;28;20029;-73
2021/03/31 05:47:34;;;;;;;29.17;9.95;;;7.20;99.90;;;;;;5025219;28;20065;-74
2021/03/31 05:50:00;;;;;;;36.28;10.90;;;7.20;99.90;;;;;;5025343;28;20032;-73
2021/03/31 05:52:26;;;;;;;19.65;9.77;;;7.20;99.90;;;;;;5023368;28;20493;-75
2021/03/31 05:54:52;;;;;;;25.15;10.15;;;7.20;99.90;;;;;;5023909;28;20034;-74
2021/03/31 05:57:18;;;;;;;19.27;8.57;;;7.30;99.90;;;;;;5025242;28;20038;-75
2021/03/31 05:59:46;;;;;;;21.17;9.73;;;7.30;99.90;;;;;;5025444;28;20030;-73
2021/03/31 06:02:16;;;;;;;30.83;10.05;;;7.30;99.90;;;;;;5024610;28;20034;-73
2021/03/31 06:04:43;;;;;;;19.48;8.30;;;7.40;99.90;;;;;;5039967;28;20029;-73
2021/03/31 06:07:09;;;;;;;30.08;10.20;;;7.40;99.90;;;;;;5038980;28;20041;-73
2021/03/31 06:09:55;;;;;;;20.90;10.07;;;7.50;99.90;;;;;;5024798;28;20034;-73
2021/03/31 06:12:28;;;;;;;20.45;8.88;;;7.60;99.90;;;;;;5023593;28;20033;-75
2021/03/31 06:14:53;;;;;;;26.15;9.63;;;7.70;99.90;;;;;;5025047;28;20052;-74
2021/03/31 06:17:19;;;;;;;20.15;9.20;;;7.70;99.90;;;;;;5024805;28;20050;-74
2021/03/31 06:19:46;;;;;;;23.52;9.15;;;7.90;99.90;;;;;;5024758;28;20030;-74
2021/03/31 06:25:15;;;;;;;29.95;10.05;;;8.10;99.90;;;;;;5024616;28;20060;-75
2021/03/31 06:27:41;;;;;;;28.83;9.18;;;8.20;99.90;;;;;;5022803;28;20458;-73
2021/03/31 06:30:07;;;;;;;18.00;7.88;;;8.30;99.90;;;;;;5031938;28;20045;-74
2021/03/31 06:32:41;;;;;;;14.73;6.82;;;8.40;99.90;;;;;;5022565;28;20461;-74
2021/03/31 06:35:33;;;;;;;21.10;8.97;;;8.50;99.90;;;;;;5030477;28;20034;-74
2021/03/31 06:38:08;;;;;;;20.83;7.47;;;8.60;99.90;;;;;;5033792;28;20291;-76
2021/03/31 06:40:54;;;;;;;17.38;7.70;;;8.70;99.90;;;;;;5039868;28;20526;-75
2021/03/31 06:43:29;;;;;;;19.10;8.20;;;8.70;99.90;;;;;;5036565;28;20223;-74
2021/03/31 06:48:25;;;;;;;17.75;7.03;;;9.00;99.90;;;;;;5034620;28;20022;-74
2021/03/31 06:50:51;;;;;;;23.23;7.53;;;9.10;99.90;;;;;;5038191;28;20033;-74
2021/03/31 06:53:28;;;;;;;22.13;8.38;;;9.20;99.90;;;;;;5023297;28;20038;-74
2021/03/31 06:56:03;;;;;;;18.17;6.85;;;9.30;99.90;;;;;;5023138;28;20018;-74
2021/03/31 06:58:29;;;;;;;22.25;7.20;;;9.40;99.90;;;;;;5022817;28;20089;-75
2021/03/31 07:00:55;;;;;;;16.15;7.25;;;9.50;99.90;;;;;;5027486;28;20053;-76
2021/03/31 07:03:22;;;;;;;17.10;7.63;;;9.50;99.90;;;;;;5030401;28;20168;-73
2021/03/31 07:05:48;;;;;;;15.63;7.30;;;9.70;99.90;;;;;;5025107;28;20030;-75
2021/03/31 07:08:17;;;;;;;18.15;7.30;;;9.80;99.90;;;;;;5025786;28;20030;-74
2021/03/31 07:10:52;;;;;;;17.85;6.68;;;9.90;99.90;;;;;;5027987;28;20053;-73
2021/03/31 07:13:29;;;;;;;15.70;7.30;;;10.00;99.90;;;;;;5028042;28;20042;-72
2021/03/31 07:15:56;;;;;;;16.15;7.25;;;10.10;99.90;;;;;;5027459;28;20050;-72
2021/03/31 07:18:22;;;;;;;12.77;6.60;;;10.20;99.90;;;;;;5027577;28;20046;-74
2021/03/31 07:20:49;;;;;;;13.38;6.57;;;10.30;99.90;;;;;;5027693;28;20034;-73
2021/03/31 07:23:16;;;;;;;20.65;8.10;;;10.30;99.90;;;;;;5026203;28;20038;-74
2021/03/31 07:25:42;;;;;;;18.40;6.90;;;10.40;99.90;;;;;;5030120;28;20053;-73
2021/03/31 07:28:08;;;;;;;19.80;8.13;;;10.50;99.90;;;;;;5058396;28;20030;-73
2021/03/31 07:30:36;;;;;;;21.52;7.60;;;10.50;99.90;;;;;;5027378;28;20037;-72
2021/03/31 07:33:19;;;;;;;17.40;7.82;;;10.60;99.90;;;;;;5044725;28;20037;-73
2021/03/31 07:35:47;;;;;;;19.25;7.60;;;10.70;99.90;;;;;;5047346;28;20034;-75
2021/03/31 07:38:21;;;;;;;18.08;7.70;;;10.80;99.90;;;;;;5047478;28;20059;-73
2021/03/31 07:40:47;;;;;;;;;;;11.00;99.90;;;;;;5047721;28;20053;-74
2021/03/31 07:43:15;;;;;;;17.13;8.23;;;11.00;99.90;;;;;;5047245;28;19920;-74
2021/03/31 07:45:49;;;;;;;26.10;7.72;;;11.10;99.90;;;;;;5046383;28;20026;-74
2021/03/31 07:48:17;;;;;;;15.70;7.38;;;11.20;99.90;;;;;;5046961;28;20028;-73
2021/03/31 07:50:45;;;;;;;15.05;7.45;;;11.20;99.90;;;;;;5046976;28;20089;-74
2021/03/31 07:53:13;;;;;;;24.73;8.45;;;11.30;99.90;;;;;;5047122;28;20056;-74
2021/03/31 07:55:54;;;;;;;15.18;8.05;;;11.40;99.90;;;;;;5046596;28;20071;-73
2021/03/31 07:58:24;;;;;;;18.60;7.65;;;11.50;99.90;;;;;;5040925;28;20033;-74
2021/03/31 08:00:55;;;;;;;19.33;7.03;;;11.70;99.90;;;;;;5046598;28;20021;-75
2021/03/31 08:03:24;;;;;;;29.65;8.38;;;11.80;99.90;;;;;;5046619;28;20033;-74
2021/03/31 08:06:02;;;;;;;15.10;7.38;;;11.90;99.90;;;;;;5046812;28;20033;-74
2021/03/31 08:08:28;;;;;;;13.27;7.20;;;12.10;99.90;;;;;;5045753;28;20044;-74
2021/03/31 08:10:55;;;;;;;20.38;8.57;;;12.30;99.90;;;;;;5044663;28;20542;-74
2021/03/31 08:13:29;;;;;;;17.85;7.72;;;12.60;99.90;;;;;;5045803;28;20025;-75
2021/03/31 08:15:57;;;;;;;19.45;7.75;;;12.90;99.90;;;;;;5045756;28;20100;-73
2021/03/31 08:18:25;;;;;;;15.07;7.10;;;13.10;99.90;;;;;;5045149;28;20394;-77
2021/03/31 08:20:52;;;;;;;13.93;6.93;;;13.30;99.90;;;;;;5045670;28;20029;-75
2021/03/31 08:23:48;;;;;;;15.98;7.25;;;13.60;99.90;;;;;;5044546;28;20105;-75
2021/03/31 08:26:38;;;;;;;16.13;6.65;;;13.90;99.90;;;;;;5045918;28;20091;-74
2021/03/31 08:29:19;;;;;;;14.52;7.10;;;14.10;99.90;;;;;;5045020;28;20093;-74
2021/03/31 08:32:06;;;;;;;12.65;6.90;;;14.40;99.90;;;;;;5046255;28;20037;-76
2021/03/31 08:34:33;;;;;;;18.55;7.57;;;14.70;99.90;;;;;;5045897;28;20178;-75
2021/03/31 08:37:01;;;;;;;16.60;7.47;;;15.00;99.90;;;;;;5046268;28;20033;-75
2021/03/31 08:39:26;;;;;;;17.65;7.03;;;15.20;99.90;;;;;;5046009;28;20073;-75
2021/03/31 08:41:56;;;;;;;17.38;6.57;;;15.40;99.90;;;;;;5043477;28;20052;-74
2021/03/31 08:44:35;;;;;;;16.80;6.85;;;15.60;99.90;;;;;;5028426;28;20725;-73
2021/03/31 08:47:22;;;;;;;13.10;6.57;;;15.80;99.90;;;;;;5029473;28;20124;-74
2021/03/31 08:49:50;;;;;;;15.60;7.13;;;16.00;99.90;;;;;;5044597;28;20060;-75
2021/03/31 08:52:25;;;;;;;32.95;7.82;;;16.30;99.90;;;;;;5044203;28;20036;-75
2021/03/31 08:54:53;;;;;;;13.10;6.28;;;16.50;99.90;;;;;;5044667;28;20773;-73
2021/03/31 08:57:24;;;;;;;11.57;7.07;;;16.70;99.90;;;;;;5032796;28;20482;-74
2021/03/31 08:59:52;;;;;;;13.07;6.82;;;16.90;99.90;;;;;;5024397;28;20053;-74
2021/03/31 09:02:20;;;;;;;14.70;6.60;;;17.10;99.90;;;;;;5042597;28;20490;-73
2021/03/31 09:04:49;;;;;;;14.48;6.30;;;17.20;99.90;;;;;;5030142;28;20033;-75
2021/03/31 09:07:16;;;;;;;10.68;5.55;;;17.40;99.90;;;;;;5045356;28;20026;-73
2021/03/31 09:09:43;;;;;;;17.92;7.80;;;17.60;99.90;;;;;;5045342;28;20040;-73
2021/03/31 09:12:17;;;;;;;13.65;6.82;;;17.80;99.90;;;;;;5043881;28;20029;-74
2021/03/31 09:14:54;;;;;;;11.00;6.43;;;18.00;99.90;;;;;;5045608;28;20057;-73
2021/03/31 09:17:28;;;;;;;15.02;6.43;;;18.30;99.90;;;;;;5041314;28;20062;-74
2021/03/31 09:19:56;;;;;;;16.35;6.22;;;18.60;99.90;;;;;;5039647;28;20048;-75
2021/03/31 09:22:25;;;;;;;14.38;7.20;;;18.80;99.90;;;;;;5045621;28;20033;-74
2021/03/31 09:24:55;;;;;;;17.08;7.93;;;19.10;99.90;;;;;;5033250;28;20050;-74
2021/03/31 09:27:24;;;;;;;13.05;6.90;;;19.30;99.90;;;;;;5025136;28;20025;-74
2021/03/31 09:29:53;;;;;;;13.43;6.97;;;19.60;99.90;;;;;;5025027;28;20022;-74
2021/03/31 09:32:38;;;;;;;12.15;6.93;;;19.70;99.90;;;;;;5033017;28;20029;-73
2021/03/31 09:35:14;;;;;;;14.90;7.43;;;20.00;99.90;;;;;;5032152;28;20092;-74
2021/03/31 09:37:39;;;;;;;13.65;6.38;;;20.00;99.90;;;;;;5044637;28;20027;-73
2021/03/31 09:40:05;;;;;;;13.85;7.22;;;20.10;99.90;;;;;;5043245;28;20124;-73
2021/03/31 09:42:35;;;;;;;27.10;7.10;;;20.20;99.90;;;;;;5038527;28;20048;-73
2021/03/31 09:45:03;;;;;;;12.18;6.00;;;20.30;99.90;;;;;;5024926;28;20053;-73
2021/03/31 09:47:30;;;;;;;16.05;7.28;;;20.30;99.90;;;;;;5025242;28;20467;-74
2021/03/31 09:49:58;;;;;;;26.60;7.82;;;20.50;99.90;;;;;;5025268;28;20040;-73
2021/03/31 09:52:28;;;;;;;18.80;7.22;;;20.70;99.90;;;;;;5025209;28;20034;-73
2021/03/31 09:54:55;;;;;;;13.20;6.00;;;20.80;99.90;;;;;;5024733;28;20025;-74
2021/03/31 09:57:28;;;;;;;14.07;6.72;;;20.90;99.90;;;;;;5038592;28;20025;-74
2021/03/31 09:59:54;;;;;;;11.52;6.38;;;21.10;99.90;;;;;;5044074;28;20025;-73
2021/03/31 10:02:22;;;;;;;11.75;6.50;;;21.00;99.90;;;;;;5044517;28;20048;-73
2021/03/31 10:04:49;;;;;;;12.48;6.55;;;21.00;99.90;;;;;;5044809;28;20359;-73
2021/03/31 10:07:18;;;;;;;17.20;8.00;;;21.00;99.90;;;;;;5024548;28;20104;-74
2021/03/31 10:09:54;;;;;;;15.45;6.95;;;21.20;99.90;;;;;;5022686;28;20117;-74
2021/03/31 10:12:28;;;;;;;19.90;7.30;;;21.30;99.90;;;;;;5024666;28;20026;-73
2021/03/31 10:14:55;;;;;;;13.00;7.03;;;21.50;99.90;;;;;;5024020;28;20026;-71
2021/03/31 10:17:23;;;;;;;18.50;7.53;;;21.60;99.90;;;;;;5024046;28;20042;-74
2021/03/31 10:19:50;;;;;;;14.65;7.10;;;21.80;99.90;;;;;;5024150;28;20038;-74
2021/03/31 10:22:17;;;;;;;14.50;6.60;;;22.00;99.90;;;;;;5039320;28;20038;-74
2021/03/31 10:24:45;;;;;;;18.00;6.95;;;22.20;99.90;;;;;;5028323;28;20025;-74
2021/03/31 10:27:12;;;;;;;18.45;7.22;;;22.50;99.90;;;;;;5044237;28;20472;-74
2021/03/31 10:29:45;;;;;;;13.70;7.60;;;22.80;99.90;;;;;;5043957;28;20036;-75
2021/03/31 10:32:14;;;;;;;11.75;5.97;;;23.00;99.90;;;;;;5044118;28;20037;-74
2021/03/31 10:34:42;;;;;;;22.30;7.35;;;23.10;99.90;;;;;;5043734;28;20108;-75
2021/03/31 10:48:55;;;;;;;14.15;6.85;;;23.70;96.60;;;;;;5027721;28;20033;-73
2021/03/31 10:54:14;;;;;;;13.88;6.97;;;24.10;97.50;;;;;;5027989;28;20053;-73
2021/03/31 10:56:50;;;;;;;19.40;6.95;;;24.30;97.50;;;;;;5027757;28;20030;-74
2021/03/31 10:59:16;;;;;;;12.25;5.85;;;24.40;97.30;;;;;;5033164;28;20028;-75
2021/03/31 11:01:42;;;;;;;20.77;7.00;;;24.50;96.30;;;;;;5047639;28;20034;-74
2021/03/31 11:04:07;;;;;;;15.07;7.43;;;24.70;96.10;;;;;;5046353;28;20120;-73
2021/03/31 11:06:33;;;;;;;17.20;6.78;;;24.70;94.10;;;;;;5026299;28;20033;-73
2021/03/31 11:08:59;;;;;;;16.58;6.55;;;24.80;95.40;;;;;;5027675;28;20026;-73
2021/03/31 11:11:24;;;;;;;18.73;7.38;;;24.90;94.20;;;;;;5027465;28;20137;-73
2021/03/31 11:13:50;;;;;;;16.95;7.68;;;25.10;94.70;;;;;;5034934;28;20029;-72
2021/03/31 11:16:16;;;;;;;16.35;7.68;;;25.20;94.20;;;;;;5056244;28;20056;-71
2021/03/31 11:18:52;;;;;;;10.10;5.43;;;25.30;93.30;;;;;;5053958;28;20029;-71
2021/03/31 11:26:28;;;;;;;12.73;7.18;;;25.60;92.50;;;;;;5051764;28;20047;-74
2021/03/31 11:28:53;;;;;;;21.33;8.20;;;25.70;91.20;;;;;;5031699;28;20093;-75
2021/03/31 11:31:19;;;;;;;15.40;7.75;;;25.80;91.60;;;;;;5042205;28;20029;-75
2021/03/31 11:33:45;;;;;;;22.02;7.78;;;26.00;90.70;;;;;;5047412;28;20105;-72
2021/03/31 11:36:11;;;;;;;16.67;7.75;;;26.20;90.90;;;;;;5047486;28;20029;-75
2021/03/31 11:38:36;;;;;;;19.77;7.82;;;26.30;90.00;;;;;;5047529;28;20021;-73
2021/03/31 11:41:03;;;;;;;13.18;7.03;;;26.50;89.50;;;;;;5045580;28;20118;-71
2021/03/31 11:43:29;;;;;;;26.17;8.00;;;26.70;89.20;;;;;;5046719;28;20038;-72
2021/03/31 11:45:54;;;;;;;20.90;8.32;;;26.90;87.70;;;;;;5045790;28;20087;-71
2021/03/31 11:48:21;;;;;;;19.92;7.63;;;27.10;83.60;;;;;;5046417;28;20029;-74
2021/03/31 11:50:47;;;;;;;18.10;8.32;;;27.20;85.30;;;;;;5047078;28;20026;-72
2021/03/31 11:53:14;;;;;;;16.20;7.43;;;27.30;84.10;;;;;;5045991;28;20025;-71
2021/03/31 11:55:40;;;;;;;16.30;8.27;;;27.40;80.80;;;;;;5046720;28;20748;-73
2021/03/31 11:58:06;;;;;;;17.48;7.85;;;27.30;79.90;;;;;;5045072;28;20765;-70
2021/03/31 12:00:31;;;;;;;18.75;7.25;;;27.30;79.80;;;;;;5046477;28;20362;-71
2021/03/31 12:02:58;;;;;;;12.50;7.22;;;27.40;78.90;;;;;;5046352;28;20037;-73
2021/03/31 12:05:24;;;;;;;15.25;7.72;;;27.50;80.20;;;;;;5045060;28;20029;-70
2021/03/31 12:07:53;;;;;;;21.45;7.88;;;27.60;79.60;;;;;;5045026;28;20020;-74
2021/03/31 12:10:19;;;;;;;17.33;7.55;;;27.60;76.90;;;;;;5043893;28;20025;-71
2021/03/31 12:12:45;;;;;;;13.55;6.40;;;27.60;72.80;;;;;;5045114;28;20033;-76
2021/03/31 12:15:12;;;;;;;14.23;6.95;;;27.70;76.00;;;;;;5045643;28;20068;-73
2021/03/31 12:17:39;;;;;;;16.15;6.95;;;27.80;73.40;;;;;;5044821;28;20054;-73
2021/03/31 12:20:13;;;;;;;12.90;6.85;;;27.90;73.20;;;;;;5044808;28;20030;-73
2021/03/31 12:22:39;;;;;;;12.80;6.68;;;28.00;72.20;;;;;;5046034;28;20087;-73
2021/03/31 12:25:08;;;;;;;18.85;6.35;;;28.10;72.60;;;;;;5044349;28;20060;-72
2021/03/31 12:27:34;;;;;;;14.50;6.80;;;28.40;74.50;;;;;;5044342;28;20029;-73
2021/03/31 12:30:02;;;;;;;12.73;6.25;;;28.60;69.60;;;;;;5045780;28;20021;-77
2021/03/31 12:32:28;;;;;;;14.52;6.65;;;28.70;69.60;;;;;;5045896;28;20021;-71
2021/03/31 12:34:54;;;;;;;10.15;5.47;;;28.80;70.80;;;;;;5043232;28;20033;-76
2021/03/31 12:37:20;;;;;;;10.63;5.43;;;28.80;68.70;;;;;;5045732;28;20032;-77
2021/03/31 12:39:45;;;;;;;11.75;6.63;;;28.80;67.00;;;;;;5044294;28;20097;-72
2021/03/31 12:42:11;;;;;;;14.82;6.45;;;28.90;67.80;;;;;;5044770;28;20032;-73
2021/03/31 12:44:37;;;;;;;10.75;5.93;;;29.00;68.20;;;;;;5045811;28;20381;-74
2021/03/31 12:47:03;;;;;;;13.88;6.93;;;28.90;65.40;;;;;;5045832;28;20113;-73
2021/03/31 12:49:30;;;;;;;12.90;6.50;;;29.00;63.80;;;;;;5045846;28;20029;-75
2021/03/31 12:52:06;;;;;;;17.83;7.00;;;29.00;66.00;;;;;;5045635;28;20018;-74
2021/03/31 12:54:35;;;;;;;17.30;5.97;;;29.10;65.40;;;;;;5045913;28;20052;-72
2021/03/31 12:57:02;;;;;;;27.80;7.35;;;29.30;66.60;;;;;;5045935;28;20017;-74
2021/03/31 12:59:28;;;;;;;10.90;6.60;;;29.50;66.10;;;;;;5045709;28;20079;-74
2021/03/31 13:01:54;;;;;;;11.25;5.70;;;29.40;65.50;;;;;;5043670;28;20124;-75
2021/03/31 13:04:21;;;;;;;20.58;6.57;;;29.60;66.50;;;;;;5044725;28;20033;-74
2021/03/31 13:06:48;;;;;;;11.43;6.07;;;29.80;65.70;;;;;;5044084;28;20039;-74
2021/03/31 13:09:14;;;;;;;12.52;6.18;;;29.90;65.40;;;;;;5045466;28;20017;-74
2021/03/31 13:11:40;;;;;;;16.45;6.75;;;30.10;62.20;;;;;;5045428;28;20501;-73
2021/03/31 13:24:44;;;;;;;15.00;6.63;;;30.90;65.20;;;;;;5044409;28;20087;-74